Monemvasia — A8XA3 — position and weather

sailwx.info

Track history (hours):
 
Tides and Currents Weather Stations Pressure Air Temp Water Temp Dewpoint Dewpoint Depression Visibility Wind Speed Wind Dir Waves Ship Positions

Monemvasia

Last reported at 2018-Feb-18 03:09 UTC. Time now 2018-Feb-24 06:52 UTC.
Position N 28°54' W 013°04'.

Length 207 m; draft 10.6 m.

Type: Ship (hazmat cat A). MMSI: 636017405.

Date/timePositionNaut miles runAvg speedWind from/ knotsBaromVisibWave heightAir tempDewpointWater temp
2018-Feb-18 03:09N 28°54' W 013°04'58211.2
2018-Feb-15 23:19N 36°09' W 005°26'0 0.0
2018-Feb-15 22:55N 36°09' W 005°26'0 0.0
2018-Feb-15 22:28N 36°09' W 005°26'0 0.0
2018-Feb-15 21:58N 36°09' W 005°26'0 0.0
2018-Feb-15 21:28N 36°09' W 005°26'0 0.0
2018-Feb-15 20:43N 36°09' W 005°26'0 0.0
2018-Feb-15 20:28N 36°09' W 005°26'0 0.0
2018-Feb-15 19:49N 36°09' W 005°26'0 0.0
2018-Feb-15 19:28N 36°09' W 005°26'0 0.0
2018-Feb-15 18:58N 36°09' W 005°26'2 0.5
2018-Feb-15 14:43N 36°08' W 005°24'1 6.1
2018-Feb-15 14:30N 36°07' W 005°24'5 9.8
2018-Feb-15 14:00N 36°02' W 005°22'612.6
2018-Feb-15 13:30N 35°58' W 005°28'  
2018-Feb-12 14:50N 28°37' W 013°16'  
2018-Feb-09 02:00N 09°45' W 016°25'815.5
2018-Feb-09 01:30N 09°40' W 016°19'815.5
2018-Feb-09 01:00N 09°34' W 016°13'1615.8
2018-Feb-09 00:00N 09°24' W 016°01'1615.6
2018-Feb-08 23:00N 09°14' W 015°50'815.4
2018-Feb-08 22:30N 09°09' W 015°43'815.4
2018-Feb-08 22:00N 09°03' W 015°38'2315.4
2018-Feb-08 20:30N 08°48' W 015°20'1515.2
2018-Feb-08 19:30N 08°38' W 015°09'815.0
2018-Feb-08 19:00N 08°32' W 015°04'1515.1
2018-Feb-08 18:00N 08°23' W 014°52'815.1
2018-Feb-08 17:30N 08°18' W 014°46'815.1
2018-Feb-08 17:00N 08°13' W 014°40'815.2
2018-Feb-08 16:30N 08°08' W 014°34'815.5
2018-Feb-08 16:00N 08°03' W 014°28'1615.5
2018-Feb-08 15:00N 07°52' W 014°17'7715.4
2018-Feb-08 10:00N 07°05' W 013°15'3115.3
2018-Feb-08 08:00N 06°50' W 012°49'  
Track history (hours):
 
Tides and Currents Weather Stations Pressure Air Temp Water Temp Dewpoint Dewpoint Depression Visibility Wind Speed Wind Dir Waves Ship Positions

Monemvasia

Last reported at 2018-Feb-18 03:09 UTC. Time now 2018-Feb-24 06:52 UTC.
Position N 28°54' W 013°04'.

Length 207 m; draft 10.6 m.

Type: Ship (hazmat cat A). MMSI: 636017405.

Date/timePositionNaut miles runAvg speedWind from/ knotsBaromVisibWave heightAir tempDewpointWater temp
2018-Feb-18 03:09N 28°54' W 013°04'58211.2
2018-Feb-15 23:19N 36°09' W 005°26'0 0.0
2018-Feb-15 22:55N 36°09' W 005°26'0 0.0
2018-Feb-15 22:28N 36°09' W 005°26'0 0.0
2018-Feb-15 21:58N 36°09' W 005°26'0 0.0
2018-Feb-15 21:28N 36°09' W 005°26'0 0.0
2018-Feb-15 20:43N 36°09' W 005°26'0 0.0
2018-Feb-15 20:28N 36°09' W 005°26'0 0.0
2018-Feb-15 19:49N 36°09' W 005°26'0 0.0
2018-Feb-15 19:28N 36°09' W 005°26'0 0.0
2018-Feb-15 18:58N 36°09' W 005°26'2 0.5
2018-Feb-15 14:43N 36°08' W 005°24'1 6.1
2018-Feb-15 14:30N 36°07' W 005°24'5 9.8
2018-Feb-15 14:00N 36°02' W 005°22'612.6
2018-Feb-15 13:30N 35°58' W 005°28'  
2018-Feb-12 14:50N 28°37' W 013°16'  
2018-Feb-09 02:00N 09°45' W 016°25'815.5
2018-Feb-09 01:30N 09°40' W 016°19'815.5
2018-Feb-09 01:00N 09°34' W 016°13'1615.8
2018-Feb-09 00:00N 09°24' W 016°01'1615.6
2018-Feb-08 23:00N 09°14' W 015°50'815.4
2018-Feb-08 22:30N 09°09' W 015°43'815.4
2018-Feb-08 22:00N 09°03' W 015°38'2315.4
2018-Feb-08 20:30N 08°48' W 015°20'1515.2
2018-Feb-08 19:30N 08°38' W 015°09'815.0
2018-Feb-08 19:00N 08°32' W 015°04'1515.1
2018-Feb-08 18:00N 08°23' W 014°52'815.1
2018-Feb-08 17:30N 08°18' W 014°46'815.1
2018-Feb-08 17:00N 08°13' W 014°40'815.2
2018-Feb-08 16:30N 08°08' W 014°34'815.5
2018-Feb-08 16:00N 08°03' W 014°28'1615.5
2018-Feb-08 15:00N 07°52' W 014°17'7715.4
2018-Feb-08 10:00N 07°05' W 013°15'3115.3
2018-Feb-08 08:00N 06°50' W 012°49'  

Dump ship's entire track history